Time;durP1;ratioP1;P1;durP2;ratioP2;P2;SDS_P1;SDS_P2;PMS_P1;PMS_P2;Temp;Humidity;BMP_temperature;BMP_pressure;BME280_temperature;BME280_humidity;BME280_pressure;Samples;Min_cycle;Max_cycle;Signal;HPM_P1;HPM_P2
2022/01/18 00:02:12;;;;;;;7.17;2.47;;;21.70;77.60;;;;;;1924832;72;21248;-83
2022/01/18 00:04:43;;;;;;;3.95;2.58;;;21.70;77.70;;;;;;1928901;72;21226;-82
2022/01/18 00:07:13;;;;;;;6.08;2.95;;;21.70;78.00;;;;;;1921645;73;21582;-81
2022/01/18 00:09:44;;;;;;;3.33;2.40;;;21.70;78.10;;;;;;1923914;72;21764;-83
2022/01/18 00:15:05;;;;;;;6.53;3.30;;;21.70;78.00;;;;;;1935331;72;21061;-82
2022/01/18 00:17:41;;;;;;;6.10;3.15;;;21.70;77.90;;;;;;1951544;72;21140;-83
2022/01/18 00:19:54;;;;;;;7.42;3.67;;;21.70;78.30;;;;;;1971854;71;21110;-83
2022/01/18 00:22:28;;;;;;;6.80;4.97;;;21.70;78.10;;;;;;1978882;71;21201;-83
2022/01/18 00:25:00;;;;;;;9.55;5.37;;;21.60;79.30;;;;;;1902713;73;21109;-82
2022/01/18 00:27:30;;;;;;;8.95;4.55;;;21.60;78.60;;;;;;1909993;73;21140;-83
2022/01/18 00:30:22;;;;;;;6.20;3.60;;;21.60;78.60;;;;;;1905120;73;21589;-82
2022/01/18 00:35:10;;;;;;;7.65;3.27;;;21.70;78.10;;;;;;1966956;71;21204;-81
2022/01/18 00:37:50;;;;;;;4.53;2.62;;;21.70;78.30;;;;;;1970669;71;21095;-81
2022/01/18 00:40:13;;;;;;;6.85;3.45;;;21.70;78.30;;;;;;1968505;71;21128;-81
2022/01/18 00:42:44;;;;;;;7.83;3.85;;;21.80;78.10;;;;;;1980262;71;21870;-83
2022/01/18 00:45:15;;;;;;;9.15;3.98;;;21.80;77.10;;;;;;1979280;71;21124;-82
2022/01/18 00:47:46;;;;;;;6.92;3.37;;;21.80;77.90;;;;;;1988324;71;21069;-83
2022/01/18 00:50:20;;;;;;;6.33;2.70;;;21.80;77.50;;;;;;1960630;71;21195;-84
2022/01/18 00:52:56;;;;;;;6.72;2.42;;;21.80;77.30;;;;;;1970400;71;21156;-83
2022/01/18 00:55:25;;;;;;;5.58;2.75;;;21.80;77.60;;;;;;1897857;74;21091;-83
2022/01/18 00:57:54;;;;;;;6.17;2.70;;;21.80;77.50;;;;;;1915358;73;21124;-82
2022/01/18 01:00:25;;;;;;;6.35;3.12;;;21.80;77.60;;;;;;1901064;73;21112;-83
2022/01/18 01:02:56;;;;;;;8.63;2.80;;;21.80;77.50;;;;;;1905068;73;21159;-83
2022/01/18 01:05:27;;;;;;;8.95;2.92;;;21.80;77.50;;;;;;1914012;72;21076;-81
2022/01/18 01:07:58;;;;;;;3.55;2.40;;;21.90;77.20;;;;;;1903628;73;21104;-83
2022/01/18 01:10:31;;;;;;;4.75;2.47;;;21.90;76.90;;;;;;1902609;73;21076;-82
2022/01/18 01:13:01;;;;;;;7.78;3.00;;;21.90;76.70;;;;;;1905593;73;21100;-83
2022/01/18 01:15:40;;;;;;;6.47;2.90;;;21.90;76.10;;;;;;1973270;71;21068;-81
2022/01/18 01:18:18;;;;;;;8.68;3.65;;;22.00;76.00;;;;;;1957629;71;21143;-83
2022/01/18 01:36:27;;;;;;;4.05;1.70;;;22.20;75.40;;;;;;1971933;71;21088;-82
2022/01/18 01:44:03;;;;;;;13.15;2.98;;;22.30;74.90;;;;;;1980385;71;21203;-83
2022/01/18 01:46:12;;;;;;;5.65;1.80;;;22.40;74.70;;;;;;1968588;71;21107;-83
2022/01/18 01:48:50;;;;;;;3.95;2.20;;;22.40;74.40;;;;;;1969490;71;21044;-83
2022/01/18 01:51:16;;;;;;;5.97;1.98;;;22.50;74.40;;;;;;1992947;70;21167;-83
2022/01/18 01:53:55;;;;;;;4.10;1.92;;;22.60;73.90;;;;;;1979233;71;21426;-83
2022/01/18 01:56:22;;;;;;;9.30;1.85;;;22.60;73.40;;;;;;1974018;71;21187;-84
2022/01/18 01:58:53;;;;;;;5.55;2.08;;;22.70;73.40;;;;;;1893442;74;21174;-83
2022/01/18 02:01:24;;;;;;;4.58;2.35;;;22.70;73.00;;;;;;1983970;71;21170;-84
2022/01/18 02:03:58;;;;;;;6.53;3.27;;;22.80;73.00;;;;;;1967826;71;21902;-84
2022/01/18 02:06:29;;;;;;;7.40;3.15;;;22.80;73.00;;;;;;1972531;71;22369;-85
2022/01/18 02:08:59;;;;;;;5.80;2.58;;;22.90;72.60;;;;;;1978057;71;21040;-83
2022/01/18 02:11:30;;;;;;;6.92;2.90;;;23.00;72.40;;;;;;1982921;71;21168;-84
2022/01/18 02:14:02;;;;;;;6.97;2.30;;;23.00;72.30;;;;;;1980072;71;21122;-85
2022/01/18 02:21:46;;;;;;;8.45;2.45;;;23.20;72.10;;;;;;1983165;71;21113;-83
2022/01/18 02:24:13;;;;;;;6.05;2.00;;;23.30;72.00;;;;;;1976916;71;21583;-84
2022/01/18 02:26:44;;;;;;;6.55;2.08;;;23.30;71.40;;;;;;1911000;72;21205;-83
2022/01/18 02:29:15;;;;;;;8.35;2.00;;;23.40;71.20;;;;;;1938124;72;21156;-84
2022/01/18 02:31:47;;;;;;;6.45;2.00;;;23.40;71.00;;;;;;1933145;72;21073;-85
2022/01/18 02:34:20;;;;;;;4.50;2.35;;;23.40;70.90;;;;;;1917741;72;21147;-84
2022/01/18 02:36:54;;;;;;;6.58;2.27;;;23.50;70.70;;;;;;1932214;72;21759;-83
2022/01/18 02:39:27;;;;;;;5.05;2.08;;;23.50;70.70;;;;;;1960391;70;21096;-85
2022/01/18 02:42:00;;;;;;;5.33;2.17;;;23.60;70.70;;;;;;1985624;70;21116;-84
2022/01/18 02:44:32;;;;;;;4.08;1.98;;;23.70;70.50;;;;;;1979407;71;21573;-84
2022/01/18 02:47:04;;;;;;;3.67;1.62;;;23.80;70.10;;;;;;1979483;71;21326;-86
2022/01/18 02:49:37;;;;;;;2.65;1.47;;;23.80;69.70;;;;;;1985668;71;21182;-84
2022/01/18 02:52:08;;;;;;;6.28;1.57;;;23.90;68.60;;;;;;1984880;71;21104;-85
2022/01/18 02:54:38;;;;;;;3.20;1.80;;;23.90;69.00;;;;;;1984556;71;21118;-82
2022/01/18 02:57:13;;;;;;;5.42;2.00;;;23.90;69.10;;;;;;1984693;70;21138;-84
2022/01/18 02:59:56;;;;;;;4.83;1.90;;;24.00;68.60;;;;;;1974112;70;21085;-83
2022/01/18 03:04:53;;;;;;;6.55;1.87;;;24.00;68.20;;;;;;1986364;71;21535;-83
2022/01/18 03:07:24;;;;;;;3.87;1.87;;;24.00;68.40;;;;;;1976026;70;21210;-83
2022/01/18 03:09:55;;;;;;;7.53;1.85;;;24.00;68.20;;;;;;1973266;71;21078;-83
2022/01/18 03:12:26;;;;;;;8.15;2.40;;;24.10;68.20;;;;;;1981120;71;21173;-84
2022/01/18 03:14:58;;;;;;;11.43;2.50;;;24.20;68.30;;;;;;1965201;71;21139;-84
2022/01/18 03:17:30;;;;;;;3.92;2.30;;;24.20;68.20;;;;;;1968089;71;21645;-83
2022/01/18 03:20:01;;;;;;;4.03;2.20;;;24.30;67.80;;;;;;1975660;71;21184;-83
2022/01/18 03:22:31;;;;;;;6.40;1.92;;;24.40;67.40;;;;;;1970863;71;21045;-83
2022/01/18 03:25:14;;;;;;;5.47;2.10;;;24.40;66.90;;;;;;1909151;73;21136;-83
2022/01/18 03:30:10;;;;;;;7.20;2.00;;;24.60;66.60;;;;;;1916491;73;21926;-83
2022/01/18 03:32:41;;;;;;;10.68;1.95;;;24.60;66.50;;;;;;1885464;73;21117;-84
2022/01/18 03:35:12;;;;;;;5.85;1.87;;;24.70;66.40;;;;;;1921904;72;21590;-84
2022/01/18 03:37:43;;;;;;;4.95;1.98;;;24.80;66.40;;;;;;1954344;72;21125;-83
2022/01/18 03:40:13;;;;;;;5.85;2.17;;;24.80;65.90;;;;;;1980349;71;21127;-84
2022/01/18 03:42:46;;;;;;;5.40;2.00;;;24.90;65.20;;;;;;1975947;71;21194;-83
2022/01/18 03:45:19;;;;;;;4.90;2.27;;;25.00;65.10;;;;;;1966734;71;21103;-83
2022/01/18 03:47:50;;;;;;;5.90;1.82;;;25.20;65.00;;;;;;1970641;71;21168;-82
2022/01/18 03:50:24;;;;;;;6.85;2.15;;;25.30;65.30;;;;;;1966047;72;21069;-84
2022/01/18 03:52:55;;;;;;;4.47;2.15;;;25.30;63.90;;;;;;1968094;71;22230;-84
2022/01/18 03:55:26;;;;;;;7.58;1.95;;;25.40;63.80;;;;;;1967788;71;21232;-83
2022/01/18 03:57:57;;;;;;;4.35;2.20;;;25.50;63.50;;;;;;1985692;71;21126;-83
2022/01/18 04:00:29;;;;;;;4.75;2.35;;;25.60;63.90;;;;;;1984421;70;21100;-83
2022/01/18 04:03:00;;;;;;;4.33;2.00;;;25.60;64.00;;;;;;1970577;71;21785;-83
2022/01/18 04:05:32;;;;;;;8.50;2.58;;;25.70;63.90;;;;;;1946901;72;21159;-83
2022/01/18 04:08:03;;;;;;;7.75;2.40;;;25.80;63.10;;;;;;1917561;73;21229;-84
2022/01/18 04:10:34;;;;;;;5.08;2.17;;;25.90;62.90;;;;;;1913127;73;21158;-85
2022/01/18 04:13:05;;;;;;;4.90;2.15;;;25.90;62.90;;;;;;1908319;73;21135;-84
2022/01/18 04:15:35;;;;;;;7.95;2.42;;;26.00;62.30;;;;;;1976233;71;21916;-85
2022/01/18 04:30:50;;;;;;;9.00;2.70;;;26.60;60.40;;;;;;1985544;71;21143;-83
2022/01/18 04:33:21;;;;;;;6.58;2.55;;;26.70;60.40;;;;;;1972923;71;21154;-83
2022/01/18 04:35:51;;;;;;;7.97;2.55;;;26.70;59.70;;;;;;1973501;71;21087;-84
2022/01/18 04:38:22;;;;;;;8.28;2.45;;;26.80;59.30;;;;;;1979973;71;21151;-83
2022/01/18 04:40:58;;;;;;;5.33;2.52;;;26.90;59.40;;;;;;1979628;71;21827;-83
2022/01/18 04:43:45;;;;;;;4.97;2.30;;;27.00;59.60;;;;;;1979401;71;21073;-84
2022/01/18 04:48:39;;;;;;;4.22;1.90;;;27.10;59.00;;;;;;1912401;73;21104;-83
2022/01/18 04:51:09;;;;;;;7.45;2.87;;;27.20;59.10;;;;;;1903705;73;21221;-86
2022/01/18 04:53:41;;;;;;;4.53;2.67;;;27.30;58.90;;;;;;1932548;73;21209;-85
2022/01/18 04:56:15;;;;;;;9.08;2.55;;;27.40;58.90;;;;;;1935996;72;21273;-83
2022/01/18 04:58:44;;;;;;;8.23;2.75;;;27.50;58.30;;;;;;1943107;72;21722;-84
2022/01/18 05:01:15;;;;;;;5.83;2.27;;;27.60;58.10;;;;;;1979141;71;21144;-83
2022/01/18 05:03:46;;;;;;;6.70;2.75;;;27.70;57.90;;;;;;1981286;71;21115;-84
2022/01/18 05:06:18;;;;;;;6.30;2.70;;;27.70;57.60;;;;;;1972711;71;21617;-84
2022/01/18 05:08:49;;;;;;;5.15;2.65;;;27.90;57.50;;;;;;1990219;71;21128;-86
2022/01/18 05:11:22;;;;;;;7.35;2.92;;;28.00;57.40;;;;;;1982682;71;21276;-85
2022/01/18 05:14:09;;;;;;;4.92;2.62;;;28.00;57.20;;;;;;1978722;71;21131;-85
2022/01/18 05:17:03;;;;;;;6.20;2.47;;;28.10;57.20;;;;;;1987304;71;21112;-85
2022/01/18 05:24:00;;;;;;;7.83;2.72;;;28.30;56.40;;;;;;1974265;71;21591;-85
2022/01/18 05:26:31;;;;;;;5.47;2.77;;;28.30;56.70;;;;;;1978650;71;21248;-84
2022/01/18 05:29:02;;;;;;;4.15;2.15;;;28.40;56.60;;;;;;1977192;71;21130;-85
2022/01/18 05:31:33;;;;;;;4.25;2.50;;;28.40;56.20;;;;;;1965177;70;21176;-85
2022/01/18 05:34:04;;;;;;;3.30;1.87;;;28.40;56.10;;;;;;1904263;73;21229;-85
2022/01/18 05:36:35;;;;;;;5.22;2.10;;;28.50;56.20;;;;;;1961221;71;21095;-85
2022/01/18 05:39:09;;;;;;;4.92;1.75;;;28.50;55.40;;;;;;1971565;71;21183;-84
2022/01/18 05:41:41;;;;;;;3.83;2.25;;;28.50;55.30;;;;;;1978092;71;21188;-85
2022/01/18 05:44:14;;;;;;;6.33;2.10;;;28.60;55.50;;;;;;1972413;70;21127;-86
2022/01/18 05:46:50;;;;;;;7.37;4.58;;;28.50;55.20;;;;;;1980366;71;21193;-86
2022/01/18 05:49:20;;;;;;;5.60;2.65;;;28.60;55.40;;;;;;1973807;71;21096;-85
2022/01/18 05:51:51;;;;;;;7.80;1.82;;;28.60;55.50;;;;;;1968193;70;21159;-86
2022/01/18 05:54:27;;;;;;;5.05;1.70;;;28.70;54.90;;;;;;1980776;71;21100;-87
2022/01/18 05:56:54;;;;;;;7.50;1.98;;;28.80;54.50;;;;;;1966459;71;21001;-85
2022/01/18 05:59:34;;;;;;;7.58;1.70;;;28.80;54.90;;;;;;1973065;70;21631;-84
2022/01/18 06:02:02;;;;;;;6.22;2.52;;;28.90;54.80;;;;;;1949751;72;21110;-82
2022/01/18 06:07:10;;;;;;;5.47;1.80;;;28.90;54.30;;;;;;1978148;71;21123;-85
2022/01/18 06:09:43;;;;;;;7.55;3.70;;;28.90;54.90;;;;;;1970929;71;21098;-86
2022/01/18 06:12:15;;;;;;;6.15;2.33;;;29.00;54.00;;;;;;1975887;70;21137;-87
2022/01/18 06:15:38;;;;;;;5.05;2.30;;;29.00;53.60;;;;;;1954056;72;21130;-87
2022/01/18 06:20:51;;;;;;;6.55;2.30;;;29.00;53.80;;;;;;1801456;77;21282;-85
2022/01/18 06:23:34;;;;;;;;;;;;;;;;;;;;;
2022/01/18 06:26:03;;;;;;;7.60;1.77;;;29.10;53.40;;;;;;1783759;77;21207;-86
2022/01/18 06:28:40;;;;;;;8.68;2.42;;;29.20;53.50;;;;;;1796755;77;21155;-87
2022/01/18 06:31:13;;;;;;;5.72;1.77;;;29.20;54.00;;;;;;1799580;77;21316;-86
2022/01/18 06:34:16;;;;;;;;;;;;;;;;;;;;;
2022/01/18 06:36:52;;;;;;;5.58;2.33;;;29.30;53.80;;;;;;1807798;77;21232;-85
2022/01/18 06:39:20;;;;;;;5.75;2.12;;;29.40;52.90;;;;;;1764649;79;21320;-84
2022/01/18 06:41:51;;;;;;;6.92;1.85;;;29.40;53.00;;;;;;1768046;77;21300;-85
2022/01/18 06:44:24;;;;;;;3.52;2.12;;;29.40;53.30;;;;;;1791705;78;21262;-86
2022/01/18 06:46:56;;;;;;;4.80;2.05;;;29.40;52.80;;;;;;1816516;77;21299;-85
2022/01/18 06:49:26;;;;;;;4.92;1.92;;;29.40;52.80;;;;;;1779768;79;21340;-86
2022/01/18 06:52:00;;;;;;;5.08;1.80;;;29.40;53.40;;;;;;1804136;78;21114;-84
2022/01/18 06:54:30;;;;;;;3.50;1.98;;;29.40;52.70;;;;;;1793149;78;21589;-85
2022/01/18 06:57:18;;;;;;;;;;;;;;;;;;;;;
2022/01/18 06:59:58;;;;;;;4.50;1.90;;;29.40;53.50;;;;;;1948575;72;21084;-84
2022/01/18 07:02:31;;;;;;;5.70;1.80;;;29.40;53.80;;;;;;1916371;72;21514;-85
2022/01/18 07:05:03;;;;;;;6.00;2.10;;;29.40;52.10;;;;;;1947372;72;21194;-86
2022/01/18 07:07:34;;;;;;;6.12;1.80;;;29.40;52.40;;;;;;1943777;72;21225;-86
2022/01/18 07:10:05;;;;;;;4.15;2.30;;;29.40;52.70;;;;;;1948017;72;21176;-86
2022/01/18 07:12:37;;;;;;;5.42;2.25;;;29.40;52.20;;;;;;1963206;72;21205;-85
2022/01/18 07:15:08;;;;;;;5.50;2.60;;;29.40;52.30;;;;;;1934369;72;21692;-85
2022/01/18 07:17:40;;;;;;;8.03;2.08;;;29.40;52.00;;;;;;1961760;72;21173;-86
2022/01/18 07:20:12;;;;;;;8.15;1.70;;;29.40;53.10;;;;;;1966590;72;21183;-87
2022/01/18 07:22:43;;;;;;;4.65;2.22;;;29.40;51.60;;;;;;1969376;72;21256;-86
2022/01/18 07:25:19;;;;;;;7.20;2.25;;;29.40;52.40;;;;;;1941432;72;21310;-86
2022/01/18 07:27:49;;;;;;;4.95;2.40;;;29.40;51.70;;;;;;1872460;73;21259;-88
2022/01/18 07:30:20;;;;;;;4.40;2.20;;;29.50;52.40;;;;;;1890042;73;21232;-84
2022/01/18 07:32:51;;;;;;;5.72;2.70;;;29.50;52.10;;;;;;1887300;74;21120;-85
2022/01/18 07:35:21;;;;;;;9.53;3.08;;;29.40;52.10;;;;;;1876914;74;21249;-86
2022/01/18 07:37:52;;;;;;;7.03;2.27;;;29.50;52.00;;;;;;1886124;73;21515;-86
2022/01/18 07:40:23;;;;;;;8.65;2.37;;;29.50;52.20;;;;;;1981817;71;21685;-86
2022/01/18 07:42:54;;;;;;;5.08;2.45;;;29.50;51.80;;;;;;1971378;71;21795;-86
2022/01/18 07:45:25;;;;;;;4.45;2.77;;;29.50;51.90;;;;;;1961003;71;21187;-86
2022/01/18 07:47:56;;;;;;;3.65;2.12;;;29.40;52.50;;;;;;1971777;71;21103;-85
2022/01/18 07:50:28;;;;;;;6.70;2.20;;;29.40;52.30;;;;;;1967175;71;21131;-85
2022/01/18 07:52:59;;;;;;;3.65;2.40;;;29.40;52.50;;;;;;1941383;72;21119;-86
2022/01/18 07:55:30;;;;;;;4.80;2.35;;;29.40;52.20;;;;;;1968189;72;21079;-85
2022/01/18 07:58:00;;;;;;;4.62;1.95;;;29.40;52.20;;;;;;1915247;74;21153;-85
2022/01/18 08:00:32;;;;;;;4.67;1.60;;;29.40;52.30;;;;;;1968833;71;21104;-85
2022/01/18 08:03:03;;;;;;;5.25;2.12;;;29.40;52.00;;;;;;1984281;70;21108;-86
2022/01/18 08:05:35;;;;;;;3.83;2.35;;;29.30;51.80;;;;;;1967235;71;21647;-85
2022/01/18 08:08:07;;;;;;;3.72;1.70;;;29.30;52.50;;;;;;1943818;70;21212;-86
2022/01/18 08:10:39;;;;;;;5.45;3.00;;;29.30;52.00;;;;;;1967494;71;22116;-85
2022/01/18 08:13:10;;;;;;;6.78;2.70;;;29.30;51.80;;;;;;1976338;71;21851;-85
2022/01/18 08:15:42;;;;;;;6.95;2.45;;;29.30;52.10;;;;;;1980808;71;21130;-86
2022/01/18 08:18:16;;;;;;;2.98;1.92;;;29.30;51.60;;;;;;1973796;71;21073;-84
2022/01/18 08:20:48;;;;;;;6.37;2.08;;;29.30;52.00;;;;;;1977240;71;21182;-84
2022/01/18 08:23:18;;;;;;;6.22;2.05;;;29.30;51.90;;;;;;1975922;71;21104;-83
2022/01/18 08:25:49;;;;;;;5.97;2.27;;;29.30;53.30;;;;;;1911731;73;21190;-85
2022/01/18 08:28:22;;;;;;;2.95;1.80;;;29.30;52.20;;;;;;1897347;74;21157;-85
2022/01/18 08:30:53;;;;;;;5.03;2.40;;;29.20;52.20;;;;;;1904171;74;21527;-84
2022/01/18 08:33:24;;;;;;;4.80;2.20;;;29.20;52.00;;;;;;1902705;74;22505;-83
2022/01/18 08:35:56;;;;;;;4.03;2.45;;;29.20;52.20;;;;;;1888451;74;21206;-85
2022/01/18 08:38:28;;;;;;;5.40;2.20;;;29.10;52.10;;;;;;1920682;73;21116;-84
2022/01/18 08:41:00;;;;;;;4.83;2.00;;;29.10;52.60;;;;;;1900248;73;21144;-85
2022/01/18 08:43:31;;;;;;;3.95;1.52;;;29.10;51.90;;;;;;1899151;74;21068;-84
2022/01/18 08:46:06;;;;;;;4.40;2.37;;;29.20;52.30;;;;;;1899973;74;21179;-85
2022/01/18 08:48:36;;;;;;;6.03;2.50;;;29.10;51.80;;;;;;1906319;73;21211;-86
2022/01/18 08:51:08;;;;;;;5.97;2.50;;;29.10;52.30;;;;;;1901778;73;21292;-86
2022/01/18 08:53:40;;;;;;;4.95;2.30;;;29.10;52.40;;;;;;1920514;73;21753;-86
2022/01/18 08:56:10;;;;;;;4.37;2.42;;;29.10;52.60;;;;;;1966899;71;21104;-87
2022/01/18 08:58:43;;;;;;;5.65;2.20;;;29.10;52.30;;;;;;1967337;71;21101;-86
2022/01/18 09:01:13;;;;;;;5.17;2.33;;;29.20;52.50;;;;;;1969619;71;21062;-87
2022/01/18 09:03:45;;;;;;;7.62;3.25;;;29.20;52.40;;;;;;1940829;71;21113;-86
2022/01/18 09:06:18;;;;;;;4.65;2.33;;;29.10;52.90;;;;;;1969201;71;21136;-85
2022/01/18 09:08:55;;;;;;;6.72;2.60;;;29.20;52.10;;;;;;1974231;71;22172;-86
2022/01/18 09:11:21;;;;;;;3.95;2.37;;;29.20;52.30;;;;;;1977698;71;21143;-85
2022/01/18 09:13:53;;;;;;;5.60;3.47;;;29.20;52.00;;;;;;2000158;71;21112;-86
2022/01/18 09:16:25;;;;;;;7.55;4.15;;;29.20;52.50;;;;;;1914788;73;21156;-86
2022/01/18 09:18:57;;;;;;;6.92;4.40;;;29.10;52.10;;;;;;1906749;73;21219;-85
2022/01/18 09:21:30;;;;;;;6.70;3.27;;;29.10;52.30;;;;;;1904163;74;21147;-86
2022/01/18 09:24:02;;;;;;;7.28;3.30;;;29.10;51.70;;;;;;1898119;74;21089;-86
2022/01/18 09:26:32;;;;;;;5.45;3.12;;;29.00;51.90;;;;;;1913387;73;21850;-86
2022/01/18 09:29:09;;;;;;;5.80;2.98;;;29.00;52.10;;;;;;1903855;73;21139;-86
2022/01/18 09:31:39;;;;;;;6.37;3.52;;;29.00;52.00;;;;;;1893840;75;21224;-86
2022/01/18 09:34:13;;;;;;;5.65;3.58;;;29.00;52.00;;;;;;1959540;71;21103;-87
2022/01/18 09:36:44;;;;;;;7.05;3.62;;;28.90;52.30;;;;;;1974148;71;21281;-86
2022/01/18 09:39:16;;;;;;;10.95;4.22;;;28.90;52.50;;;;;;1985409;71;21136;-84
2022/01/18 09:41:51;;;;;;;7.10;3.25;;;28.90;52.20;;;;;;1979248;71;21132;-85
2022/01/18 09:44:22;;;;;;;6.70;2.98;;;28.90;52.40;;;;;;1959246;71;21142;-86
2022/01/18 09:46:54;;;;;;;4.87;3.33;;;28.90;52.20;;;;;;1987243;71;21221;-84
2022/01/18 09:49:26;;;;;;;6.37;2.80;;;28.80;52.40;;;;;;1982934;71;21180;-85
2022/01/18 09:51:56;;;;;;;8.38;3.12;;;28.70;52.30;;;;;;1968866;70;21201;-85
2022/01/18 09:54:30;;;;;;;5.87;2.85;;;28.70;52.30;;;;;;1969384;71;21189;-85
2022/01/18 09:57:05;;;;;;;5.45;3.50;;;28.70;52.90;;;;;;1981077;71;21069;-85
2022/01/18 09:59:33;;;;;;;7.20;3.37;;;28.70;52.80;;;;;;1984693;71;21281;-84
2022/01/18 10:02:06;;;;;;;6.90;3.95;;;28.60;52.40;;;;;;1982386;71;21073;-85
2022/01/18 10:04:38;;;;;;;6.47;3.40;;;28.60;52.60;;;;;;1966941;71;21201;-85
2022/01/18 10:07:09;;;;;;;5.30;3.02;;;28.50;52.50;;;;;;1973113;71;21200;-83
2022/01/18 10:09:40;;;;;;;6.75;3.00;;;28.50;52.80;;;;;;1987461;71;21190;-84
2022/01/18 10:12:13;;;;;;;6.90;3.75;;;28.50;52.80;;;;;;1975832;71;21076;-84
2022/01/18 10:14:48;;;;;;;5.37;3.33;;;28.40;53.10;;;;;;1964717;71;21221;-82
2022/01/18 10:17:21;;;;;;;7.35;3.05;;;28.40;53.20;;;;;;1984040;71;21061;-85
2022/01/18 10:19:51;;;;;;;7.47;3.65;;;28.30;53.20;;;;;;1986001;71;21266;-85
2022/01/18 10:22:30;;;;;;;8.20;3.30;;;28.30;53.30;;;;;;1967300;71;21641;-84
2022/01/18 10:24:55;;;;;;;4.87;2.98;;;28.30;53.30;;;;;;1974622;71;21045;-83
2022/01/18 10:27:32;;;;;;;4.62;2.95;;;28.30;53.40;;;;;;1970975;71;21197;-84
2022/01/18 10:30:05;;;;;;;5.90;3.27;;;28.20;53.40;;;;;;1972107;71;21572;-84
2022/01/18 10:32:40;;;;;;;9.30;3.87;;;28.20;53.80;;;;;;1984815;71;21640;-85
2022/01/18 10:35:09;;;;;;;8.58;5.22;;;28.20;53.90;;;;;;1974358;71;21171;-85
2022/01/18 10:37:42;;;;;;;9.23;5.08;;;28.10;53.80;;;;;;1958432;71;21086;-84
2022/01/18 10:40:15;;;;;;;8.20;5.33;;;28.10;53.90;;;;;;1985426;71;21107;-85
2022/01/18 10:42:49;;;;;;;9.73;6.30;;;28.10;53.90;;;;;;1992499;70;22200;-83
2022/01/18 10:45:27;;;;;;;9.73;5.47;;;28.00;54.00;;;;;;1982302;71;21131;-85
2022/01/18 10:47:57;;;;;;;9.65;6.75;;;28.00;54.00;;;;;;1983203;71;21729;-84
2022/01/18 10:50:30;;;;;;;10.18;7.00;;;28.00;54.30;;;;;;1929205;73;21041;-86
2022/01/18 10:53:04;;;;;;;12.35;7.25;;;27.90;54.60;;;;;;1978278;71;21151;-84
2022/01/18 10:55:34;;;;;;;15.88;7.50;;;27.90;54.80;;;;;;1892462;74;21079;-85
2022/01/18 10:58:08;;;;;;;14.70;7.05;;;27.80;55.00;;;;;;1909658;72;21192;-85
2022/01/18 11:00:39;;;;;;;13.03;6.15;;;27.80;55.10;;;;;;1949580;72;21210;-85
2022/01/18 11:03:10;;;;;;;11.65;5.28;;;27.80;55.30;;;;;;1936190;72;21117;-85
2022/01/18 11:05:43;;;;;;;14.23;6.03;;;27.80;55.40;;;;;;1923287;72;21157;-85
2022/01/18 11:08:17;;;;;;;15.13;5.58;;;27.70;55.60;;;;;;1979844;71;21095;-85
2022/01/18 11:10:49;;;;;;;14.28;6.30;;;27.70;55.70;;;;;;1971467;71;21620;-84
2022/01/18 11:13:22;;;;;;;8.68;5.47;;;27.70;55.80;;;;;;1956519;72;21753;-86
2022/01/18 11:16:03;;;;;;;11.68;5.62;;;27.70;55.90;;;;;;1896613;73;21202;-85
2022/01/18 11:18:30;;;;;;;12.10;5.87;;;27.60;56.10;;;;;;1893298;74;21799;-86
2022/01/18 11:21:04;;;;;;;14.87;6.37;;;27.60;56.20;;;;;;1884652;74;21226;-84
2022/01/18 11:23:41;;;;;;;15.03;7.97;;;27.60;56.40;;;;;;1949124;72;21115;-84
2022/01/18 11:26:12;;;;;;;18.62;10.63;;;27.50;56.50;;;;;;1954789;72;21167;-85
2022/01/18 11:28:47;;;;;;;22.20;11.45;;;27.50;56.70;;;;;;1963263;72;21472;-86
2022/01/18 11:31:20;;;;;;;19.70;11.75;;;27.50;56.80;;;;;;1956885;72;21249;-86
2022/01/18 11:33:54;;;;;;;27.25;12.25;;;27.40;56.80;;;;;;1956661;72;21251;-85
2022/01/18 11:36:28;;;;;;;22.90;12.03;;;27.40;56.90;;;;;;1964755;71;21114;-85
2022/01/18 11:39:01;;;;;;;21.07;10.88;;;27.40;57.00;;;;;;1966688;72;21189;-84
2022/01/18 11:41:35;;;;;;;15.45;9.75;;;27.30;57.10;;;;;;1955318;72;21706;-86
2022/01/18 11:44:08;;;;;;;21.50;9.78;;;27.40;57.20;;;;;;1965434;71;21127;-85
2022/01/18 11:46:42;;;;;;;16.25;9.03;;;27.30;57.40;;;;;;1948695;71;21107;-84
2022/01/18 11:49:15;;;;;;;16.15;8.43;;;27.30;57.00;;;;;;1956663;72;21096;-85
2022/01/18 11:51:48;;;;;;;20.05;9.05;;;27.20;57.50;;;;;;1960337;72;21068;-86
2022/01/18 11:54:24;;;;;;;19.15;9.35;;;27.20;57.70;;;;;;1961479;71;21100;-85
2022/01/18 11:56:55;;;;;;;18.27;9.78;;;27.20;57.90;;;;;;1959637;72;21146;-83
2022/01/18 11:59:28;;;;;;;17.00;9.58;;;27.20;58.20;;;;;;1960074;72;21178;-86
2022/01/18 12:02:02;;;;;;;20.65;9.20;;;27.20;58.40;;;;;;1907448;73;21148;-84
2022/01/18 12:04:35;;;;;;;17.02;8.73;;;27.10;58.50;;;;;;1953891;72;21715;-84
2022/01/18 12:07:06;;;;;;;23.75;10.98;;;27.10;58.70;;;;;;1955775;72;21091;-85
2022/01/18 12:09:38;;;;;;;19.00;10.13;;;27.10;58.80;;;;;;1963185;71;21178;-85
2022/01/18 12:12:12;;;;;;;23.05;13.32;;;27.00;59.00;;;;;;1945947;72;21072;-84
2022/01/18 12:14:43;;;;;;;26.48;14.05;;;27.10;59.20;;;;;;1891767;73;21085;-85
2022/01/18 12:17:16;;;;;;;22.67;12.63;;;27.00;59.40;;;;;;1964204;71;21129;-83
2022/01/18 12:19:48;;;;;;;24.52;14.25;;;27.00;59.50;;;;;;1959400;72;21169;-85
2022/01/18 12:22:22;;;;;;;31.15;14.93;;;26.90;59.30;;;;;;1954602;72;21103;-85
2022/01/18 12:24:55;;;;;;;28.57;17.50;;;26.90;59.50;;;;;;1945871;72;21762;-85
2022/01/18 12:27:31;;;;;;;37.40;22.13;;;26.90;59.60;;;;;;1946708;71;21577;-84
2022/01/18 12:30:03;;;;;;;35.33;22.75;;;26.90;59.80;;;;;;1914595;73;21077;-85
2022/01/18 12:33:07;;;;;;;32.50;20.37;;;26.90;60.00;;;;;;1956424;72;21126;-84
2022/01/18 12:35:08;;;;;;;30.17;19.73;;;26.90;60.10;;;;;;1948622;72;21213;-84
2022/01/18 12:37:41;;;;;;;31.73;19.20;;;26.80;60.30;;;;;;1956745;72;21107;-85
2022/01/18 12:40:13;;;;;;;31.93;18.32;;;26.80;60.40;;;;;;1963178;72;21103;-84
2022/01/18 12:45:21;;;;;;;37.63;21.30;;;26.70;60.70;;;;;;1952228;71;21276;-84
2022/01/18 12:47:55;;;;;;;35.85;24.37;;;26.70;60.90;;;;;;1900998;73;21250;-85
2022/01/18 12:50:27;;;;;;;44.88;26.27;;;26.70;61.10;;;;;;1889740;73;21642;-84
2022/01/18 12:53:00;;;;;;;47.43;29.48;;;26.70;62.30;;;;;;1886208;74;21182;-85
2022/01/18 12:55:35;;;;;;;54.18;35.85;;;26.60;61.20;;;;;;1885321;73;21292;-83
2022/01/18 12:58:08;;;;;;;57.90;38.38;;;26.60;61.20;;;;;;1882516;74;21088;-85
2022/01/18 13:00:41;;;;;;;54.05;34.48;;;26.60;61.30;;;;;;1923226;72;21796;-85
2022/01/18 13:03:15;;;;;;;45.55;30.80;;;26.50;61.30;;;;;;1893527;74;21126;-84
2022/01/18 13:05:47;;;;;;;37.95;23.95;;;26.50;61.40;;;;;;1966106;72;21111;-85
2022/01/18 13:08:20;;;;;;;33.30;21.95;;;26.50;61.20;;;;;;1948612;70;21235;-84
2022/01/18 13:10:52;;;;;;;28.45;17.85;;;26.50;61.30;;;;;;1966780;72;21126;-84
2022/01/18 13:13:25;;;;;;;25.08;14.93;;;26.50;61.20;;;;;;1961485;72;21515;-83
2022/01/18 13:23:51;;;;;;;18.65;10.05;;;26.30;60.90;;;;;;1956440;72;21138;-85
2022/01/18 13:26:12;;;;;;;20.52;9.70;;;26.30;61.00;;;;;;1960349;71;21153;-86
2022/01/18 13:28:43;;;;;;;15.55;9.50;;;26.30;61.00;;;;;;1956186;71;21138;-85
2022/01/18 13:31:16;;;;;;;19.02;10.23;;;26.20;61.00;;;;;;1896339;73;21518;-86
2022/01/18 13:33:49;;;;;;;19.87;10.10;;;26.30;61.30;;;;;;1880434;73;21626;-86
2022/01/18 13:36:21;;;;;;;174.50;131.20;;;26.20;61.10;;;;;;1964437;72;21098;-85
2022/01/18 13:38:53;;;;;;;16.32;11.33;;;26.20;60.90;;;;;;1960784;71;21259;-84
2022/01/18 13:41:24;;;;;;;19.75;9.75;;;26.20;60.90;;;;;;1927548;71;21154;-84
2022/01/18 13:43:57;;;;;;;16.17;9.78;;;26.10;60.90;;;;;;1958779;71;21715;-84
2022/01/18 13:46:29;;;;;;;21.75;9.98;;;26.20;60.90;;;;;;1960996;72;21842;-87
2022/01/18 13:49:02;;;;;;;20.82;9.35;;;26.10;60.90;;;;;;1967767;72;21075;-85
2022/01/18 13:51:33;;;;;;;18.75;10.10;;;26.10;61.10;;;;;;1964278;72;21091;-86
2022/01/18 13:54:08;;;;;;;21.70;10.38;;;26.10;61.10;;;;;;1969650;71;21033;-84
2022/01/18 13:56:40;;;;;;;16.10;9.98;;;26.00;61.20;;;;;;1953753;71;21232;-83
2022/01/18 13:59:11;;;;;;;21.85;11.33;;;26.00;61.30;;;;;;1952673;72;21151;-85
2022/01/18 14:01:42;;;;;;;17.35;9.63;;;26.00;62.30;;;;;;1958625;71;21127;-86
2022/01/18 14:04:16;;;;;;;18.52;10.00;;;26.00;61.50;;;;;;1958579;71;21150;-85
2022/01/18 14:06:49;;;;;;;18.23;10.40;;;26.00;61.50;;;;;;1959651;71;21079;-84
2022/01/18 14:09:22;;;;;;;19.02;11.00;;;26.00;61.70;;;;;;1957234;71;21169;-83
2022/01/18 14:11:55;;;;;;;20.50;10.25;;;26.00;61.80;;;;;;1957007;71;21102;-85
2022/01/18 14:14:33;;;;;;;16.30;10.15;;;26.00;62.00;;;;;;1967121;72;21100;-84
2022/01/18 14:17:03;;;;;;;14.73;9.93;;;25.90;61.90;;;;;;1967309;72;21134;-86
2022/01/18 14:19:38;;;;;;;15.58;10.28;;;25.90;62.10;;;;;;1962293;72;21134;-86
2022/01/18 14:22:11;;;;;;;19.65;10.88;;;25.90;62.10;;;;;;1971772;71;21115;-85
2022/01/18 14:24:44;;;;;;;14.55;9.45;;;25.90;62.30;;;;;;1967318;71;21213;-84